createdAt,value
2022-10-28T00:09:33.367Z,98507.94
2022-10-28T00:19:35.611Z,98510.06
2022-10-28T00:29:37.886Z,98515.50
2022-10-28T00:39:40.090Z,98508.66
2022-10-28T00:49:43.296Z,98508.31
2022-10-28T00:59:50.442Z,98505.59
2022-10-28T01:09:53.008Z,98501.22
2022-10-28T01:20:23.009Z,98511.78
2022-10-28T01:30:28.146Z,98509.88
2022-10-28T01:40:43.763Z,98509.00
2022-10-28T01:51:00.526Z,98499.41
2022-10-28T02:01:06.872Z,98483.34
2022-10-28T02:11:39.952Z,98487.38
2022-10-28T02:22:15.638Z,98488.69
2022-10-28T02:32:25.303Z,98477.50
2022-10-28T02:42:50.934Z,98472.06
2022-10-28T02:52:59.299Z,98461.13
2022-10-28T03:03:01.552Z,98455.94
2022-10-28T03:13:03.829Z,98446.72
2022-10-28T03:23:06.046Z,98458.78
2022-10-28T03:33:09.267Z,98455.22
2022-10-28T03:43:11.536Z,98452.50
2022-10-28T03:53:13.959Z,98447.44
2022-10-28T04:03:17.375Z,98442.94
2022-10-28T04:13:19.664Z,98444.06
2022-10-28T04:23:23.860Z,98436.81
2022-10-28T04:33:26.083Z,98441.78
2022-10-28T04:43:28.500Z,98447.34
2022-10-28T04:53:30.828Z,98445.19
2022-10-28T05:03:35.113Z,98441.13
2022-10-28T05:13:37.460Z,98459.84
2022-10-28T05:23:39.890Z,98439.19
2022-10-28T05:33:42.284Z,98423.22
2022-10-28T05:43:44.556Z,98423.25
2022-10-28T05:53:52.063Z,98440.56
2022-10-28T06:03:54.930Z,98428.53
2022-10-28T06:13:56.067Z,98424.00
2022-10-28T06:23:58.626Z,98435.19
2022-10-28T06:34:01.818Z,98438.25
2022-10-28T06:44:04.514Z,98428.47
2022-10-28T06:54:09.091Z,98452.66
2022-10-28T07:04:14.619Z,98461.66
2022-10-28T07:14:18.087Z,98473.94
2022-10-28T07:24:21.087Z,98473.47
2022-10-28T07:34:41.901Z,98486.78
2022-10-28T07:44:46.729Z,98492.78
2022-10-28T07:54:52.913Z,98496.62
2022-10-28T08:04:57.540Z,98503.66
2022-10-28T08:15:07.069Z,98521.09
2022-10-28T08:25:11.329Z,98533.88
2022-10-28T08:35:14.962Z,98511.00
2022-10-28T08:45:27.258Z,98522.09
2022-10-28T08:55:42.575Z,98526.31
2022-10-28T09:05:53.013Z,98517.97
2022-10-28T09:16:09.398Z,98518.03
2022-10-28T09:26:53.550Z,98524.09
2022-10-28T09:37:16.175Z,98546.63
2022-10-28T09:47:32.056Z,98527.41
2022-10-28T09:57:45.145Z,98525.91
2022-10-28T10:08:00.597Z,98519.25
2022-10-28T10:18:53.685Z,98524.09
2022-10-28T10:29:01.076Z,98504.81
2022-10-28T10:39:06.040Z,98507.34
2022-10-28T10:49:21.798Z,98495.06
2022-10-28T10:59:32.054Z,98511.22
2022-10-28T11:09:44.790Z,98491.00
2022-10-28T11:19:50.137Z,98489.66
2022-10-28T11:30:03.642Z,98485.66
2022-10-28T11:40:25.961Z,98481.88
2022-10-28T11:50:29.954Z,98492.16
2022-10-28T12:00:32.889Z,98477.59
2022-10-28T12:10:54.882Z,98477.13
2022-10-28T12:21:21.021Z,98472.78
2022-10-28T12:31:40.972Z,98463.50
2022-10-28T12:41:46.727Z,98450.28
2022-10-28T12:51:52.091Z,98437.25
2022-10-28T13:02:01.576Z,98452.66
2022-10-28T13:12:25.339Z,98456.34
2022-10-28T13:22:56.585Z,98463.28
2022-10-28T13:33:07.799Z,98462.47
2022-10-28T13:43:22.096Z,98452.16
2022-10-28T13:53:24.706Z,98438.34
2022-10-28T14:03:29.111Z,98436.13
2022-10-28T14:13:36.706Z,98418.44
2022-10-28T14:23:47.340Z,98410.75
2022-10-28T14:34:15.468Z,98419.88
2022-10-28T14:44:38.817Z,98416.28
2022-10-28T14:54:52.032Z,98418.56
2022-10-28T15:05:12.582Z,98436.72
2022-10-28T15:15:28.038Z,98447.88
2022-10-28T15:25:30.594Z,98452.03
2022-10-28T15:35:38.635Z,98440.16
2022-10-28T15:45:42.724Z,98444.72
2022-10-28T16:06:31.232Z,98450.34
2022-10-28T16:16:34.016Z,98463.56
2022-10-28T16:26:36.903Z,98454.00
2022-10-28T16:36:39.521Z,98459.91
2022-10-28T16:46:42.000Z,98470.03
2022-10-28T16:56:44.792Z,98470.50
2022-10-28T17:06:47.417Z,98474.25
2022-10-28T17:16:50.480Z,98494.28
2022-10-28T17:26:53.755Z,98488.09
2022-10-28T17:36:56.326Z,98510.72
2022-10-28T17:46:59.104Z,98503.12
2022-10-28T17:57:02.112Z,98500.16
2022-10-28T18:07:05.092Z,98515.94
2022-10-28T18:17:07.637Z,98532.00
2022-10-28T18:27:10.170Z,98530.87
2022-10-28T18:37:12.837Z,98544.19
2022-10-28T18:47:15.549Z,98530.81
2022-10-28T18:57:19.551Z,98554.13
2022-10-28T19:07:22.012Z,98557.59
2022-10-28T19:17:24.414Z,98554.84
2022-10-28T19:27:27.160Z,98550.47
2022-10-28T19:37:29.749Z,98543.34
2022-10-28T19:47:32.853Z,98539.78
2022-10-28T19:57:35.712Z,98546.22
2022-10-28T20:07:38.126Z,98558.16
2022-10-28T20:17:40.737Z,98565.66
2022-10-28T20:27:43.255Z,98552.81
2022-10-28T20:37:45.945Z,98570.44
2022-10-28T20:47:48.478Z,98555.25
2022-10-28T20:57:50.841Z,98551.44
2022-10-28T21:07:55.176Z,98561.91
2022-10-28T21:17:58.180Z,98554.56
2022-10-28T21:28:01.083Z,98549.38
2022-10-28T21:38:04.055Z,98558.84
2022-10-28T21:48:06.999Z,98551.22
2022-10-28T21:58:09.532Z,98559.87
2022-10-28T22:08:12.632Z,98543.81
2022-10-28T22:18:15.868Z,98558.13
2022-10-28T22:28:18.578Z,98553.28
2022-10-28T22:38:20.897Z,98553.34
2022-10-28T22:48:24.056Z,98558.03
2022-10-28T22:58:28.069Z,98554.53
2022-10-28T23:08:31.279Z,98554.19
2022-10-28T23:18:34.161Z,98551.13
2022-10-28T23:28:36.621Z,98546.75
2022-10-28T23:38:39.373Z,98527.69
2022-10-28T23:48:41.661Z,98532.72
2022-10-28T23:58:44.099Z,98539.06
